createdAt,value
2022-11-26T00:00:38.758Z,42.45
2022-11-26T00:05:43.512Z,26.77
2022-11-26T00:10:45.172Z,32.15
2022-11-26T00:15:48.012Z,30.08
2022-11-26T00:20:54.769Z,32.63
2022-11-26T00:25:59.931Z,27.90
2022-11-26T00:31:07.458Z,34.72
2022-11-26T00:36:17.751Z,25.35
2022-11-26T00:41:23.315Z,34.30
2022-11-26T00:46:25.026Z,29.83
2022-11-26T00:51:28.003Z,26.38
2022-11-26T00:56:35.105Z,30.98
2022-11-26T01:01:39.402Z,38.80
2022-11-26T01:06:44.073Z,39.70
2022-11-26T01:11:50.869Z,35.67
2022-11-26T01:16:56.685Z,27.00
2022-11-26T01:21:58.290Z,29.45
2022-11-26T01:26:59.812Z,34.65
2022-11-26T01:32:01.462Z,40.88
2022-11-26T01:37:03.312Z,39.13
2022-11-26T01:42:26.577Z,37.03
2022-11-26T01:47:30.184Z,39.35
2022-11-26T01:52:32.358Z,44.15
2022-11-26T01:57:33.884Z,50.05
2022-11-26T02:02:35.997Z,46.30
2022-11-26T02:07:38.629Z,47.30
2022-11-26T02:12:42.317Z,45.10
2022-11-26T02:17:54.900Z,44.67
2022-11-26T02:23:42.309Z,45.53
2022-11-26T02:29:06.729Z,49.80
2022-11-26T02:34:42.131Z,48.15
2022-11-26T02:39:43.870Z,49.92
2022-11-26T02:44:46.349Z,40.47
2022-11-26T02:49:50.339Z,48.50
2022-11-26T02:54:52.903Z,44.28
2022-11-26T02:59:54.889Z,41.92
2022-11-26T03:04:59.935Z,37.60
2022-11-26T03:10:02.370Z,39.42
2022-11-26T03:15:04.175Z,38.90
2022-11-26T03:20:06.845Z,41.30
2022-11-26T03:25:09.386Z,39.88
2022-11-26T03:30:11.719Z,39.55
2022-11-26T03:35:13.476Z,46.22
2022-11-26T03:40:15.110Z,42.85
2022-11-26T03:45:16.927Z,34.83
2022-11-26T03:50:18.548Z,32.05
2022-11-26T03:55:20.154Z,34.35
2022-11-26T04:00:24.771Z,38.85
2022-11-26T04:05:26.798Z,32.60
2022-11-26T04:10:29.257Z,34.97
2022-11-26T04:15:31.192Z,37.83
2022-11-26T04:20:32.836Z,35.63
2022-11-26T04:25:34.762Z,32.72
2022-11-26T04:30:36.333Z,32.75
2022-11-26T04:35:38.303Z,30.95
2022-11-26T04:40:39.915Z,25.30
2022-11-26T04:45:41.629Z,33.55
2022-11-26T04:50:43.243Z,32.10
2022-11-26T04:55:44.739Z,32.40
2022-11-26T05:00:50.704Z,34.30
2022-11-26T05:05:53.158Z,32.50
2022-11-26T05:10:55.927Z,31.48
2022-11-26T05:15:57.656Z,32.60
2022-11-26T05:20:59.168Z,36.95
2022-11-26T05:26:00.741Z,30.23
2022-11-26T05:31:03.900Z,22.73
2022-11-26T05:36:05.725Z,26.88
2022-11-26T05:41:07.675Z,27.75
2022-11-26T05:46:09.627Z,22.45
2022-11-26T05:51:11.636Z,33.30
2022-11-26T05:56:13.339Z,25.23
2022-11-26T06:01:14.889Z,33.83
2022-11-26T06:06:16.570Z,35.17
2022-11-26T06:11:18.245Z,33.17
2022-11-26T06:16:19.981Z,36.05
2022-11-26T06:21:21.879Z,38.40
2022-11-26T06:26:23.436Z,35.70
2022-11-26T06:31:25.153Z,50.53
2022-11-26T06:36:26.934Z,36.75
2022-11-26T06:41:28.523Z,35.58
2022-11-26T06:46:30.147Z,41.72
2022-11-26T06:51:33.919Z,36.67
2022-11-26T06:56:35.729Z,37.38
2022-11-26T07:01:37.416Z,39.00
2022-11-26T07:06:39.360Z,34.90
2022-11-26T07:11:42.186Z,43.38
2022-11-26T07:16:43.864Z,49.13
2022-11-26T07:21:45.430Z,47.03
2022-11-26T07:26:47.128Z,51.22
2022-11-26T07:31:48.883Z,34.45
2022-11-26T07:36:54.031Z,36.00
2022-11-26T07:41:59.531Z,41.25
2022-11-26T07:47:01.418Z,46.20
2022-11-26T07:52:03.916Z,33.33
2022-11-26T07:57:05.550Z,38.42
2022-11-26T08:02:09.416Z,46.67
2022-11-26T08:07:12.045Z,47.85
2022-11-26T08:12:16.363Z,35.70
2022-11-26T08:17:18.439Z,31.13
2022-11-26T08:22:20.181Z,31.70
2022-11-26T08:27:25.337Z,38.55
2022-11-26T08:32:26.903Z,35.00
2022-11-26T08:37:28.578Z,31.15
2022-11-26T08:42:30.833Z,33.35
2022-11-26T08:47:32.544Z,34.58
2022-11-26T08:52:34.183Z,23.65
2022-11-26T08:57:35.938Z,26.20
2022-11-26T09:02:37.484Z,20.10
2022-11-26T09:07:39.080Z,16.92
2022-11-26T09:12:40.823Z,20.15
2022-11-26T09:17:42.554Z,16.48
2022-11-26T09:22:44.462Z,15.32
2022-11-26T09:27:46.058Z,17.88
2022-11-26T09:32:47.775Z,13.95
2022-11-26T09:37:51.742Z,17.80
2022-11-26T09:43:11.044Z,9.82
2022-11-26T09:48:16.873Z,13.85
2022-11-26T09:53:23.702Z,11.48
2022-11-26T10:03:42.392Z,14.23
2022-11-26T10:09:12.318Z,11.45
2022-11-26T10:14:38.172Z,9.23
2022-11-26T10:20:18.820Z,9.10
2022-11-26T10:25:23.838Z,8.65
2022-11-26T10:30:28.329Z,6.20
2022-11-26T10:35:30.194Z,8.70
2022-11-26T10:40:32.458Z,6.43
2022-11-26T10:45:36.888Z,6.00
2022-11-26T10:50:53.817Z,6.25
2022-11-26T11:01:03.423Z,8.80
2022-11-26T11:06:23.784Z,12.13
2022-11-26T11:11:28.704Z,7.70
2022-11-26T11:16:37.482Z,9.27
2022-11-26T11:21:43.837Z,9.48
2022-11-26T11:26:51.951Z,8.93
2022-11-26T11:31:53.736Z,13.82
2022-11-26T11:37:14.781Z,10.13
2022-11-26T11:42:27.719Z,7.00
2022-11-26T11:47:48.334Z,10.75
2022-11-26T11:52:59.464Z,12.00
2022-11-26T11:58:16.503Z,8.38
2022-11-26T12:03:55.808Z,7.90
2022-11-26T12:09:09.643Z,6.75
2022-11-26T12:14:19.154Z,7.28
2022-11-26T12:19:45.005Z,7.20
2022-11-26T12:24:58.819Z,5.93
2022-11-26T12:30:14.389Z,11.07
2022-11-26T12:35:34.195Z,7.88
2022-11-26T12:40:41.992Z,8.35
2022-11-26T12:45:55.497Z,8.05
2022-11-26T12:51:07.198Z,6.32
2022-11-26T12:56:17.927Z,8.80
2022-11-26T13:01:19.823Z,10.73
2022-11-26T13:06:42.678Z,8.70
2022-11-26T13:12:09.255Z,8.18
2022-11-26T13:17:17.698Z,7.25
2022-11-26T13:23:15.529Z,6.93
2022-11-26T13:28:30.335Z,9.05
2022-11-26T13:34:05.004Z,8.60
2022-11-26T13:39:27.816Z,6.55
2022-11-26T13:45:10.078Z,4.93
2022-11-26T13:50:38.570Z,9.18
2022-11-26T13:55:51.518Z,10.10
2022-11-26T14:00:53.125Z,5.20
2022-11-26T14:05:54.892Z,6.57
2022-11-26T14:10:56.807Z,6.75
2022-11-26T14:16:03.357Z,6.57
2022-11-26T14:21:12.222Z,6.28
2022-11-26T14:26:24.287Z,10.13
2022-11-26T14:31:29.410Z,9.10
2022-11-26T14:36:31.860Z,7.43
2022-11-26T14:41:43.440Z,13.95
2022-11-26T14:46:48.536Z,8.38
2022-11-26T14:51:51.522Z,10.18
2022-11-26T14:56:53.434Z,8.23
2022-11-26T15:01:55.234Z,9.27
2022-11-26T15:06:57.503Z,13.07
2022-11-26T15:12:05.400Z,7.57
2022-11-26T15:17:10.934Z,12.30
2022-11-26T15:22:28.303Z,9.55
2022-11-26T15:27:36.246Z,9.98
2022-11-26T15:32:37.942Z,13.00
2022-11-26T15:37:39.985Z,12.35
2022-11-26T15:42:41.781Z,12.68
2022-11-26T15:47:54.639Z,12.65
2022-11-26T15:53:22.591Z,7.85
2022-11-26T15:58:35.371Z,10.05
2022-11-26T16:03:44.217Z,11.07
2022-11-26T16:09:00.783Z,9.85
2022-11-26T16:14:29.117Z,9.57
2022-11-26T16:19:32.066Z,17.88
2022-11-26T16:24:39.204Z,15.18
2022-11-26T16:29:41.118Z,12.60
2022-11-26T16:34:43.706Z,10.68
2022-11-26T16:39:45.589Z,13.55
2022-11-26T16:44:48.033Z,10.75
2022-11-26T16:49:49.731Z,17.00
2022-11-26T16:54:51.646Z,13.10
2022-11-26T16:59:58.538Z,10.98
2022-11-26T17:05:00.103Z,10.85
2022-11-26T17:10:03.550Z,8.20
2022-11-26T17:15:05.550Z,11.48
2022-11-26T17:20:27.536Z,10.63
2022-11-26T17:25:29.203Z,13.85
2022-11-26T17:30:31.008Z,14.30
2022-11-26T17:35:32.722Z,14.27
2022-11-26T17:40:34.373Z,12.75
2022-11-26T17:45:36.310Z,11.40
2022-11-26T17:50:38.121Z,13.70
2022-11-26T17:55:39.957Z,11.60
2022-11-26T18:00:41.577Z,13.68
2022-11-26T18:05:43.240Z,14.57
2022-11-26T18:10:44.824Z,13.13
2022-11-26T18:15:46.357Z,13.32
2022-11-26T18:20:47.956Z,13.88
2022-11-26T18:25:49.564Z,15.93
2022-11-26T18:30:57.141Z,21.67
2022-11-26T18:35:58.753Z,15.02
2022-11-26T18:41:01.098Z,15.23
2022-11-26T18:46:03.901Z,20.58
2022-11-26T18:51:06.179Z,16.08
2022-11-26T18:56:09.731Z,15.23
2022-11-26T19:01:16.873Z,15.43
2022-11-26T19:06:24.665Z,19.58
2022-11-26T19:11:26.453Z,17.63
2022-11-26T19:16:28.717Z,13.52
2022-11-26T19:21:32.584Z,19.08
2022-11-26T19:26:36.497Z,17.13
2022-11-26T19:31:38.621Z,15.50
2022-11-26T19:36:40.150Z,16.42
2022-11-26T19:41:41.754Z,10.70
2022-11-26T19:46:43.292Z,15.88
2022-11-26T19:51:44.844Z,19.63
2022-11-26T19:56:46.482Z,21.25
2022-11-26T20:01:48.114Z,15.50
2022-11-26T20:06:49.816Z,18.85
2022-11-26T20:11:51.470Z,21.70
2022-11-26T20:16:57.633Z,16.02
2022-11-26T20:22:02.188Z,15.77
2022-11-26T20:27:03.825Z,20.02
2022-11-26T20:32:05.497Z,17.38
2022-11-26T20:37:07.255Z,18.02
2022-11-26T20:42:08.848Z,16.30
2022-11-26T20:47:11.907Z,25.27
2022-11-26T20:52:13.511Z,22.95
2022-11-26T20:57:15.278Z,22.45
2022-11-26T21:02:17.408Z,20.60
2022-11-26T21:07:19.157Z,26.60
2022-11-26T21:12:20.724Z,22.88
2022-11-26T21:17:22.417Z,25.73
2022-11-26T21:22:24.101Z,21.70
2022-11-26T21:27:25.625Z,22.70
2022-11-26T21:32:27.403Z,21.30
2022-11-26T21:37:28.968Z,21.48
2022-11-26T21:42:30.634Z,22.20
2022-11-26T21:47:32.176Z,22.75
2022-11-26T21:52:33.746Z,17.50
2022-11-26T21:57:35.430Z,20.15
2022-11-26T22:02:37.055Z,16.27
2022-11-26T22:07:38.729Z,22.05
2022-11-26T22:12:40.359Z,21.70
2022-11-26T22:17:42.140Z,18.80
2022-11-26T22:22:43.690Z,21.23
2022-11-26T22:27:45.243Z,24.80
2022-11-26T22:32:46.780Z,24.55
2022-11-26T22:37:48.310Z,21.25
2022-11-26T22:42:49.853Z,15.38
2022-11-26T22:47:52.972Z,20.23
2022-11-26T22:52:54.686Z,20.15
2022-11-26T22:57:56.266Z,22.10
2022-11-26T23:02:57.857Z,22.45
2022-11-26T23:07:59.809Z,19.27
2022-11-26T23:13:01.916Z,14.55
2022-11-26T23:18:03.557Z,19.77
2022-11-26T23:23:05.666Z,19.30
2022-11-26T23:28:07.952Z,13.30
2022-11-26T23:33:09.660Z,15.43
2022-11-26T23:38:11.309Z,17.30
2022-11-26T23:43:12.870Z,13.43
2022-11-26T23:48:14.699Z,16.20
2022-11-26T23:53:16.372Z,15.02
2022-11-26T23:58:18.016Z,13.18
